sensor_id;sensor_type;location;lat;lon;timestamp;pressure;altitude;pressure_sealevel;temperature;humidity
47082;BME280;33066;49.296;14.470;2023-08-07T00:02:08;96027.52;;;18.37;40.83
47082;BME280;33066;49.296;14.470;2023-08-07T00:04:33;96021.32;;;18.35;40.79
47082;BME280;33066;49.296;14.470;2023-08-07T00:07:00;96028.25;;;18.47;40.49
47082;BME280;33066;49.296;14.470;2023-08-07T00:09:24;96027.42;;;18.47;40.47
47082;BME280;33066;49.296;14.470;2023-08-07T00:11:49;96023.24;;;18.36;40.41
47082;BME280;33066;49.296;14.470;2023-08-07T00:14:14;96020.43;;;18.41;40.40
47082;BME280;33066;49.296;14.470;2023-08-07T00:16:41;96027.10;;;18.54;40.27
47082;BME280;33066;49.296;14.470;2023-08-07T00:19:04;96017.44;;;18.49;40.24
47082;BME280;33066;49.296;14.470;2023-08-07T00:21:29;96021.78;;;18.53;40.16
47082;BME280;33066;49.296;14.470;2023-08-07T00:23:54;96018.56;;;18.17;40.21
47082;BME280;33066;49.296;14.470;2023-08-07T00:26:19;96014.21;;;18.22;40.20
47082;BME280;33066;49.296;14.470;2023-08-07T00:28:44;96014.65;;;18.68;39.86
47082;BME280;33066;49.296;14.470;2023-08-07T00:31:10;96014.18;;;18.55;39.73
47082;BME280;33066;49.296;14.470;2023-08-07T00:33:35;96020.41;;;18.48;39.63
47082;BME280;33066;49.296;14.470;2023-08-07T00:36:00;96020.67;;;18.67;39.46
47082;BME280;33066;49.296;14.470;2023-08-07T00:38:25;96020.36;;;18.48;39.55
47082;BME280;33066;49.296;14.470;2023-08-07T00:40:50;96020.93;;;18.40;39.43
47082;BME280;33066;49.296;14.470;2023-08-07T00:43:15;96026.40;;;18.24;39.52
47082;BME280;33066;49.296;14.470;2023-08-07T00:45:42;96022.69;;;18.58;39.59
47082;BME280;33066;49.296;14.470;2023-08-07T00:48:05;96025.32;;;18.69;39.41
47082;BME280;33066;49.296;14.470;2023-08-07T00:50:32;96026.30;;;18.76;39.32
47082;BME280;33066;49.296;14.470;2023-08-07T00:52:56;96019.10;;;18.19;39.87
47082;BME280;33066;49.296;14.470;2023-08-07T00:55:21;96018.41;;;18.27;39.72
47082;BME280;33066;49.296;14.470;2023-08-07T00:57:46;96017.00;;;18.22;40.07
47082;BME280;33066;49.296;14.470;2023-08-07T01:00:12;96015.80;;;18.25;39.84
47082;BME280;33066;49.296;14.470;2023-08-07T01:02:36;96020.06;;;18.50;39.76
47082;BME280;33066;49.296;14.470;2023-08-07T01:05:01;96007.33;;;18.45;40.06
47082;BME280;33066;49.296;14.470;2023-08-07T01:07:26;96015.22;;;18.54;40.36
47082;BME280;33066;49.296;14.470;2023-08-07T01:09:51;96013.57;;;18.35;40.42
47082;BME280;33066;49.296;14.470;2023-08-07T01:12:22;96008.67;;;18.04;40.53
47082;BME280;33066;49.296;14.470;2023-08-07T01:14:49;96016.40;;;18.16;40.54
47082;BME280;33066;49.296;14.470;2023-08-07T01:17:11;96016.90;;;17.59;41.77
47082;BME280;33066;49.296;14.470;2023-08-07T01:19:34;96015.36;;;17.88;41.76
47082;BME280;33066;49.296;14.470;2023-08-07T01:22:05;96016.05;;;17.77;42.15
47082;BME280;33066;49.296;14.470;2023-08-07T01:24:24;96023.39;;;18.01;42.35
47082;BME280;33066;49.296;14.470;2023-08-07T01:26:47;96020.58;;;18.01;42.09
47082;BME280;33066;49.296;14.470;2023-08-07T01:29:18;96023.62;;;17.80;42.56
47082;BME280;33066;49.296;14.470;2023-08-07T01:31:38;96022.30;;;17.89;42.50
47082;BME280;33066;49.296;14.470;2023-08-07T01:34:05;96025.27;;;17.86;42.55
47082;BME280;33066;49.296;14.470;2023-08-07T01:36:28;96025.35;;;17.90;42.22
47082;BME280;33066;49.296;14.470;2023-08-07T01:38:53;96027.11;;;17.74;42.37
47082;BME280;33066;49.296;14.470;2023-08-07T01:41:18;96035.06;;;17.88;42.47
47082;BME280;33066;49.296;14.470;2023-08-07T01:43:43;96029.26;;;17.75;42.52
47082;BME280;33066;49.296;14.470;2023-08-07T01:46:10;96026.06;;;17.66;42.68
47082;BME280;33066;49.296;14.470;2023-08-07T01:48:33;96027.16;;;17.71;42.59
47082;BME280;33066;49.296;14.470;2023-08-07T01:50:58;96027.20;;;18.11;43.10
47082;BME280;33066;49.296;14.470;2023-08-07T01:53:24;96027.98;;;17.54;43.11
47082;BME280;33066;49.296;14.470;2023-08-07T01:55:49;96028.83;;;17.75;42.63
47082;BME280;33066;49.296;14.470;2023-08-07T01:58:15;96028.43;;;17.81;42.66
47082;BME280;33066;49.296;14.470;2023-08-07T02:00:39;96028.40;;;18.22;42.58
47082;BME280;33066;49.296;14.470;2023-08-07T02:03:04;96024.39;;;18.13;42.28
47082;BME280;33066;49.296;14.470;2023-08-07T02:05:29;96026.44;;;18.06;42.02
47082;BME280;33066;49.296;14.470;2023-08-07T02:07:54;96028.67;;;18.19;41.93
47082;BME280;33066;49.296;14.470;2023-08-07T02:10:20;96026.18;;;18.32;41.93
47082;BME280;33066;49.296;14.470;2023-08-07T02:12:45;96024.97;;;18.19;41.67
47082;BME280;33066;49.296;14.470;2023-08-07T02:15:10;96028.29;;;17.97;41.82
47082;BME280;33066;49.296;14.470;2023-08-07T02:17:35;96027.51;;;17.82;42.14
47082;BME280;33066;49.296;14.470;2023-08-07T02:20:00;96023.68;;;18.14;42.06
47082;BME280;33066;49.296;14.470;2023-08-07T02:22:25;96026.48;;;17.91;42.14
47082;BME280;33066;49.296;14.470;2023-08-07T02:24:50;96023.69;;;17.99;42.27
47082;BME280;33066;49.296;14.470;2023-08-07T02:27:15;96019.93;;;17.90;42.11
47082;BME280;33066;49.296;14.470;2023-08-07T02:29:40;96021.95;;;17.83;42.58
47082;BME280;33066;49.296;14.470;2023-08-07T02:32:07;96020.21;;;17.98;42.43
47082;BME280;33066;49.296;14.470;2023-08-07T02:34:31;96021.02;;;17.75;42.52
47082;BME280;33066;49.296;14.470;2023-08-07T02:36:56;96020.93;;;18.06;42.18
47082;BME280;33066;49.296;14.470;2023-08-07T02:39:22;96020.06;;;17.92;42.13
47082;BME280;33066;49.296;14.470;2023-08-07T02:41:46;96024.45;;;17.91;42.09
47082;BME280;33066;49.296;14.470;2023-08-07T02:44:11;96024.38;;;17.80;42.39
47082;BME280;33066;49.296;14.470;2023-08-07T02:46:36;96026.13;;;18.02;41.95
47082;BME280;33066;49.296;14.470;2023-08-07T02:49:02;96025.58;;;18.01;42.28
47082;BME280;33066;49.296;14.470;2023-08-07T02:51:27;96023.85;;;17.54;42.73
47082;BME280;33066;49.296;14.470;2023-08-07T02:53:52;96024.22;;;17.58;42.53
47082;BME280;33066;49.296;14.470;2023-08-07T02:56:17;96026.94;;;17.73;42.93
47082;BME280;33066;49.296;14.470;2023-08-07T02:58:42;96024.73;;;17.60;42.80
47082;BME280;33066;49.296;14.470;2023-08-07T03:01:08;96021.37;;;17.63;42.90
47082;BME280;33066;49.296;14.470;2023-08-07T03:03:32;96027.81;;;17.73;42.63
47082;BME280;33066;49.296;14.470;2023-08-07T03:05:58;96034.65;;;17.41;43.42
47082;BME280;33066;49.296;14.470;2023-08-07T03:08:23;96029.53;;;17.40;44.06
47082;BME280;33066;49.296;14.470;2023-08-07T03:13:00;96038.70;;;17.61;43.20
47082;BME280;33066;49.296;14.470;2023-08-07T03:15:25;96039.97;;;17.49;43.38
47082;BME280;33066;49.296;14.470;2023-08-07T03:17:50;96034.95;;;17.34;44.10
47082;BME280;33066;49.296;14.470;2023-08-07T03:20:15;96032.13;;;17.42;44.14
47082;BME280;33066;49.296;14.470;2023-08-07T03:22:40;96035.21;;;17.38;44.11
47082;BME280;33066;49.296;14.470;2023-08-07T03:25:06;96035.97;;;17.30;44.40
47082;BME280;33066;49.296;14.470;2023-08-07T03:27:31;96033.68;;;17.71;44.32
47082;BME280;33066;49.296;14.470;2023-08-07T03:29:56;96036.33;;;17.55;43.97
47082;BME280;33066;49.296;14.470;2023-08-07T03:32:21;96037.47;;;17.19;44.55
47082;BME280;33066;49.296;14.470;2023-08-07T03:34:46;96044.11;;;16.92;44.76
47082;BME280;33066;49.296;14.470;2023-08-07T03:37:11;96042.03;;;17.02;44.98
47082;BME280;33066;49.296;14.470;2023-08-07T03:39:36;96047.74;;;16.96;45.26
47082;BME280;33066;49.296;14.470;2023-08-07T03:42:02;96045.75;;;17.35;45.10
47082;BME280;33066;49.296;14.470;2023-08-07T03:44:27;96042.14;;;17.17;45.01
47082;BME280;33066;49.296;14.470;2023-08-07T03:46:52;96046.99;;;16.88;45.40
47082;BME280;33066;49.296;14.470;2023-08-07T03:49:18;96049.08;;;17.04;45.46
47082;BME280;33066;49.296;14.470;2023-08-07T03:51:42;96051.71;;;16.79;45.54
47082;BME280;33066;49.296;14.470;2023-08-07T03:54:08;96055.26;;;16.82;45.78
47082;BME280;33066;49.296;14.470;2023-08-07T03:56:32;96056.30;;;16.97;45.89
47082;BME280;33066;49.296;14.470;2023-08-07T03:58:58;96061.52;;;16.95;45.63
47082;BME280;33066;49.296;14.470;2023-08-07T04:01:23;96063.16;;;17.14;45.58
47082;BME280;33066;49.296;14.470;2023-08-07T04:03:48;96059.25;;;17.09;45.47
47082;BME280;33066;49.296;14.470;2023-08-07T04:06:13;96068.54;;;17.07;45.48
47082;BME280;33066;49.296;14.470;2023-08-07T04:08:38;96070.44;;;17.21;45.75
47082;BME280;33066;49.296;14.470;2023-08-07T04:11:04;96065.17;;;17.40;45.74
47082;BME280;33066;49.296;14.470;2023-08-07T04:13:29;96065.91;;;17.33;45.48
47082;BME280;33066;49.296;14.470;2023-08-07T04:15:54;96073.64;;;17.56;45.60
47082;BME280;33066;49.296;14.470;2023-08-07T04:18:19;96078.27;;;17.38;45.41
47082;BME280;33066;49.296;14.470;2023-08-07T04:20:49;96077.15;;;17.63;45.29
47082;BME280;33066;49.296;14.470;2023-08-07T04:23:09;96083.62;;;17.19;45.12
47082;BME280;33066;49.296;14.470;2023-08-07T04:25:36;96076.87;;;17.03;45.09
47082;BME280;33066;49.296;14.470;2023-08-07T04:28:00;96078.51;;;17.57;45.17
47082;BME280;33066;49.296;14.470;2023-08-07T04:30:25;96074.77;;;17.34;45.28
47082;BME280;33066;49.296;14.470;2023-08-07T04:32:50;96081.88;;;17.36;45.25
47082;BME280;33066;49.296;14.470;2023-08-07T04:35:16;96083.82;;;17.69;44.84
47082;BME280;33066;49.296;14.470;2023-08-07T04:37:41;96076.27;;;17.58;44.94
47082;BME280;33066;49.296;14.470;2023-08-07T04:40:07;96081.77;;;17.52;44.51
47082;BME280;33066;49.296;14.470;2023-08-07T04:42:31;96081.72;;;17.23;44.83
47082;BME280;33066;49.296;14.470;2023-08-07T04:44:56;96084.68;;;17.70;45.02
47082;BME280;33066;49.296;14.470;2023-08-07T04:47:21;96082.57;;;17.27;45.15
47082;BME280;33066;49.296;14.470;2023-08-07T04:49:46;96085.86;;;17.34;45.50
47082;BME280;33066;49.296;14.470;2023-08-07T04:52:12;96092.24;;;17.29;46.08
47082;BME280;33066;49.296;14.470;2023-08-07T04:54:37;96092.34;;;17.22;45.84
47082;BME280;33066;49.296;14.470;2023-08-07T04:57:02;96092.61;;;17.17;45.97
47082;BME280;33066;49.296;14.470;2023-08-07T04:59:27;96095.53;;;16.99;46.16
47082;BME280;33066;49.296;14.470;2023-08-07T05:01:52;96098.87;;;16.78;46.45
47082;BME280;33066;49.296;14.470;2023-08-07T05:04:17;96098.62;;;17.19;46.39
47082;BME280;33066;49.296;14.470;2023-08-07T05:06:42;96099.98;;;17.07;46.20
47082;BME280;33066;49.296;14.470;2023-08-07T05:09:09;96103.94;;;17.18;46.22
47082;BME280;33066;49.296;14.470;2023-08-07T05:11:33;96111.51;;;17.45;46.14
47082;BME280;33066;49.296;14.470;2023-08-07T05:13:58;96115.44;;;17.04;46.20
47082;BME280;33066;49.296;14.470;2023-08-07T05:16:23;96115.65;;;16.92;46.39
47082;BME280;33066;49.296;14.470;2023-08-07T05:18:48;96116.48;;;16.84;46.46
47082;BME280;33066;49.296;14.470;2023-08-07T05:21:13;96125.25;;;16.64;46.62
47082;BME280;33066;49.296;14.470;2023-08-07T05:23:38;96123.06;;;17.17;46.25
47082;BME280;33066;49.296;14.470;2023-08-07T05:26:04;96127.67;;;17.18;46.60
47082;BME280;33066;49.296;14.470;2023-08-07T05:28:29;96127.42;;;17.26;46.09
47082;BME280;33066;49.296;14.470;2023-08-07T05:30:54;96126.12;;;17.95;45.86
47082;BME280;33066;49.296;14.470;2023-08-07T05:33:19;96132.94;;;17.11;45.94
47082;BME280;33066;49.296;14.470;2023-08-07T05:35:46;96129.80;;;17.22;46.39
47082;BME280;33066;49.296;14.470;2023-08-07T05:38:09;96136.21;;;17.14;46.38
47082;BME280;33066;49.296;14.470;2023-08-07T05:40:34;96130.71;;;17.35;46.42
47082;BME280;33066;49.296;14.470;2023-08-07T05:43:00;96130.57;;;17.02;46.54
47082;BME280;33066;49.296;14.470;2023-08-07T05:45:25;96131.34;;;17.27;46.40
47082;BME280;33066;49.296;14.470;2023-08-07T05:47:50;96128.19;;;17.45;46.48
47082;BME280;33066;49.296;14.470;2023-08-07T05:50:15;96127.28;;;17.24;46.69
47082;BME280;33066;49.296;14.470;2023-08-07T05:52:40;96131.70;;;16.82;47.29
47082;BME280;33066;49.296;14.470;2023-08-07T05:55:06;96134.00;;;16.52;47.71
47082;BME280;33066;49.296;14.470;2023-08-07T05:57:31;96140.87;;;16.68;47.72
47082;BME280;33066;49.296;14.470;2023-08-07T05:59:56;96132.11;;;16.59;47.54
47082;BME280;33066;49.296;14.470;2023-08-07T06:02:21;96136.33;;;16.68;47.82
47082;BME280;33066;49.296;14.470;2023-08-07T06:04:46;96139.20;;;16.65;47.87
47082;BME280;33066;49.296;14.470;2023-08-07T06:07:11;96143.27;;;16.61;47.69
47082;BME280;33066;49.296;14.470;2023-08-07T06:09:36;96143.79;;;16.82;47.92
47082;BME280;33066;49.296;14.470;2023-08-07T06:12:02;96146.54;;;16.79;47.73
47082;BME280;33066;49.296;14.470;2023-08-07T06:14:26;96156.31;;;16.76;47.79
47082;BME280;33066;49.296;14.470;2023-08-07T06:16:52;96152.68;;;16.84;47.69
47082;BME280;33066;49.296;14.470;2023-08-07T06:19:17;96164.49;;;16.81;47.70
47082;BME280;33066;49.296;14.470;2023-08-07T06:21:42;96159.76;;;16.78;48.00
47082;BME280;33066;49.296;14.470;2023-08-07T06:24:07;96164.40;;;16.77;48.12
47082;BME280;33066;49.296;14.470;2023-08-07T06:26:32;96167.22;;;16.89;47.55
47082;BME280;33066;49.296;14.470;2023-08-07T06:28:57;96163.31;;;16.75;47.22
47082;BME280;33066;49.296;14.470;2023-08-07T06:31:23;96171.03;;;16.91;47.46
47082;BME280;33066;49.296;14.470;2023-08-07T06:33:49;96175.39;;;17.03;47.38
47082;BME280;33066;49.296;14.470;2023-08-07T06:36:13;96181.38;;;17.56;46.80
47082;BME280;33066;49.296;14.470;2023-08-07T06:38:40;96184.73;;;17.25;46.69
47082;BME280;33066;49.296;14.470;2023-08-07T06:41:04;96186.33;;;17.43;46.48
47082;BME280;33066;49.296;14.470;2023-08-07T06:43:28;96183.33;;;17.24;46.76
47082;BME280;33066;49.296;14.470;2023-08-07T06:45:54;96187.28;;;17.45;46.93
47082;BME280;33066;49.296;14.470;2023-08-07T06:48:19;96198.85;;;17.18;46.49
47082;BME280;33066;49.296;14.470;2023-08-07T06:50:44;96190.31;;;17.06;46.77
47082;BME280;33066;49.296;14.470;2023-08-07T06:53:09;96197.54;;;16.72;47.29
47082;BME280;33066;49.296;14.470;2023-08-07T06:55:34;96199.19;;;16.81;47.25
47082;BME280;33066;49.296;14.470;2023-08-07T06:58:01;96197.74;;;16.97;47.25
47082;BME280;33066;49.296;14.470;2023-08-07T07:00:26;96210.80;;;16.81;47.02
47082;BME280;33066;49.296;14.470;2023-08-07T07:02:49;96213.11;;;17.20;47.09
47082;BME280;33066;49.296;14.470;2023-08-07T07:05:15;96215.72;;;16.97;46.99
47082;BME280;33066;49.296;14.470;2023-08-07T07:07:40;96222.72;;;16.93;47.08
47082;BME280;33066;49.296;14.470;2023-08-07T07:10:06;96228.87;;;16.93;47.35
47082;BME280;33066;49.296;14.470;2023-08-07T07:12:30;96233.67;;;17.03;47.32
47082;BME280;33066;49.296;14.470;2023-08-07T07:14:55;96234.74;;;17.09;47.16
47082;BME280;33066;49.296;14.470;2023-08-07T07:17:20;96241.34;;;17.01;46.71
47082;BME280;33066;49.296;14.470;2023-08-07T07:19:45;96243.29;;;16.77;47.09
47082;BME280;33066;49.296;14.470;2023-08-07T07:22:11;96244.66;;;17.51;46.87
47082;BME280;33066;49.296;14.470;2023-08-07T07:24:36;96244.59;;;17.36;46.25
47082;BME280;33066;49.296;14.470;2023-08-07T07:27:03;96255.72;;;16.73;47.11
47082;BME280;33066;49.296;14.470;2023-08-07T07:29:27;96255.62;;;16.97;47.30
47082;BME280;33066;49.296;14.470;2023-08-07T07:31:51;96265.89;;;17.18;47.05
47082;BME280;33066;49.296;14.470;2023-08-07T07:34:17;96256.67;;;17.12;46.51
47082;BME280;33066;49.296;14.470;2023-08-07T07:36:41;96261.02;;;17.05;46.73
47082;BME280;33066;49.296;14.470;2023-08-07T07:39:07;96273.31;;;17.13;47.17
47082;BME280;33066;49.296;14.470;2023-08-07T07:41:32;96276.00;;;17.33;47.36
47082;BME280;33066;49.296;14.470;2023-08-07T07:43:57;96279.84;;;17.33;46.53
47082;BME280;33066;49.296;14.470;2023-08-07T07:46:22;96290.79;;;17.22;47.07
47082;BME280;33066;49.296;14.470;2023-08-07T07:48:47;96285.93;;;16.91;47.24
47082;BME280;33066;49.296;14.470;2023-08-07T07:51:12;96288.85;;;17.33;47.07
47082;BME280;33066;49.296;14.470;2023-08-07T07:53:37;96296.34;;;17.18;46.99
47082;BME280;33066;49.296;14.470;2023-08-07T07:56:03;96303.79;;;17.31;46.91
47082;BME280;33066;49.296;14.470;2023-08-07T07:58:28;96304.72;;;17.00;46.92
47082;BME280;33066;49.296;14.470;2023-08-07T08:00:53;96315.87;;;17.39;46.71
47082;BME280;33066;49.296;14.470;2023-08-07T08:03:18;96316.65;;;17.29;46.71
47082;BME280;33066;49.296;14.470;2023-08-07T08:05:43;96319.52;;;17.04;46.75
47082;BME280;33066;49.296;14.470;2023-08-07T08:08:08;96319.80;;;17.05;46.48
47082;BME280;33066;49.296;14.470;2023-08-07T08:10:34;96323.96;;;17.31;46.87
47082;BME280;33066;49.296;14.470;2023-08-07T08:12:58;96329.63;;;17.07;46.87
47082;BME280;33066;49.296;14.470;2023-08-07T08:15:24;96329.76;;;16.95;47.05
47082;BME280;33066;49.296;14.470;2023-08-07T08:17:49;96333.41;;;17.35;47.08
47082;BME280;33066;49.296;14.470;2023-08-07T08:20:14;96334.41;;;16.84;46.86
47082;BME280;33066;49.296;14.470;2023-08-07T08:22:39;96337.55;;;17.35;46.41
47082;BME280;33066;49.296;14.470;2023-08-07T08:25:06;96339.31;;;17.36;46.52
47082;BME280;33066;49.296;14.470;2023-08-07T08:27:29;96346.97;;;17.32;46.70
47082;BME280;33066;49.296;14.470;2023-08-07T08:29:54;96350.48;;;17.09;46.89
47082;BME280;33066;49.296;14.470;2023-08-07T08:32:20;96354.32;;;17.20;46.84
47082;BME280;33066;49.296;14.470;2023-08-07T08:34:45;96353.83;;;16.71;46.91
47082;BME280;33066;49.296;14.470;2023-08-07T08:37:10;96361.12;;;17.05;47.17
47082;BME280;33066;49.296;14.470;2023-08-07T08:39:35;96364.21;;;17.04;46.72
47082;BME280;33066;49.296;14.470;2023-08-07T08:42:01;96370.61;;;17.03;47.04
47082;BME280;33066;49.296;14.470;2023-08-07T08:44:26;96375.74;;;16.76;46.82
47082;BME280;33066;49.296;14.470;2023-08-07T08:46:52;96376.18;;;17.12;46.66
47082;BME280;33066;49.296;14.470;2023-08-07T08:49:20;96373.99;;;16.89;46.61
47082;BME280;33066;49.296;14.470;2023-08-07T08:51:41;96387.03;;;16.96;46.59
47082;BME280;33066;49.296;14.470;2023-08-07T08:54:07;96380.90;;;16.89;46.97
47082;BME280;33066;49.296;14.470;2023-08-07T08:56:31;96385.74;;;17.05;46.04
47082;BME280;33066;49.296;14.470;2023-08-07T08:58:56;96400.72;;;17.16;45.99
47082;BME280;33066;49.296;14.470;2023-08-07T09:01:21;96396.47;;;17.20;45.69
47082;BME280;33066;49.296;14.470;2023-08-07T09:03:47;96392.26;;;17.29;46.07
47082;BME280;33066;49.296;14.470;2023-08-07T09:06:12;96400.96;;;17.28;45.85
47082;BME280;33066;49.296;14.470;2023-08-07T09:08:38;96405.21;;;16.99;45.91
47082;BME280;33066;49.296;14.470;2023-08-07T09:11:02;96411.46;;;17.35;45.43
47082;BME280;33066;49.296;14.470;2023-08-07T09:13:28;96409.02;;;17.39;45.39
47082;BME280;33066;49.296;14.470;2023-08-07T09:15:52;96414.99;;;17.44;44.94
47082;BME280;33066;49.296;14.470;2023-08-07T09:18:17;96424.45;;;17.41;45.29
47082;BME280;33066;49.296;14.470;2023-08-07T09:20:42;96415.70;;;17.08;45.59
47082;BME280;33066;49.296;14.470;2023-08-07T09:23:07;96417.97;;;17.08;44.99
47082;BME280;33066;49.296;14.470;2023-08-07T09:25:34;96425.16;;;16.90;45.49
47082;BME280;33066;49.296;14.470;2023-08-07T09:28:02;96426.71;;;17.36;44.96
47082;BME280;33066;49.296;14.470;2023-08-07T09:30:28;96427.73;;;17.61;45.12
47082;BME280;33066;49.296;14.470;2023-08-07T09:32:48;96431.47;;;17.11;44.80
47082;BME280;33066;49.296;14.470;2023-08-07T09:35:13;96429.97;;;17.73;45.09
47082;BME280;33066;49.296;14.470;2023-08-07T09:37:38;96427.73;;;17.53;44.69
47082;BME280;33066;49.296;14.470;2023-08-07T09:40:04;96432.09;;;17.80;44.68
47082;BME280;33066;49.296;14.470;2023-08-07T09:42:31;96437.79;;;17.50;44.62
47082;BME280;33066;49.296;14.470;2023-08-07T09:44:53;96440.67;;;18.06;44.46
47082;BME280;33066;49.296;14.470;2023-08-07T09:47:19;96435.55;;;17.92;43.76
47082;BME280;33066;49.296;14.470;2023-08-07T09:49:45;96444.10;;;17.75;44.11
47082;BME280;33066;49.296;14.470;2023-08-07T09:52:10;96444.82;;;17.81;44.09
47082;BME280;33066;49.296;14.470;2023-08-07T09:54:34;96450.25;;;17.52;44.29
47082;BME280;33066;49.296;14.470;2023-08-07T09:57:00;96454.19;;;17.71;44.21
47082;BME280;33066;49.296;14.470;2023-08-07T09:59:24;96449.81;;;17.84;43.90
47082;BME280;33066;49.296;14.470;2023-08-07T10:01:50;96460.75;;;17.78;44.18
47082;BME280;33066;49.296;14.470;2023-08-07T10:04:16;96455.45;;;17.85;43.88
47082;BME280;33066;49.296;14.470;2023-08-07T10:06:40;96453.43;;;17.99;43.59
47082;BME280;33066;49.296;14.470;2023-08-07T10:09:05;96458.90;;;17.98;43.72
47082;BME280;33066;49.296;14.470;2023-08-07T10:11:30;96459.82;;;18.12;43.51
47082;BME280;33066;49.296;14.470;2023-08-07T10:13:55;96463.29;;;18.36;43.17
47082;BME280;33066;49.296;14.470;2023-08-07T10:16:20;96457.09;;;18.52;43.05
47082;BME280;33066;49.296;14.470;2023-08-07T10:18:45;96456.02;;;18.59;42.62
47082;BME280;33066;49.296;14.470;2023-08-07T10:21:10;96461.60;;;18.58;42.68
47082;BME280;33066;49.296;14.470;2023-08-07T10:23:36;96467.68;;;18.45;42.65
47082;BME280;33066;49.296;14.470;2023-08-07T10:26:01;96475.21;;;18.85;42.27
47082;BME280;33066;49.296;14.470;2023-08-07T10:28:26;96474.94;;;18.65;42.28
47082;BME280;33066;49.296;14.470;2023-08-07T10:30:51;96470.71;;;18.70;42.00
47082;BME280;33066;49.296;14.470;2023-08-07T10:33:16;96465.19;;;18.93;41.97
47082;BME280;33066;49.296;14.470;2023-08-07T10:35:46;96475.26;;;18.64;41.78
47082;BME280;33066;49.296;14.470;2023-08-07T10:38:07;96474.38;;;18.18;41.52
47082;BME280;33066;49.296;14.470;2023-08-07T10:40:31;96480.50;;;19.59;40.28
47082;BME280;33066;49.296;14.470;2023-08-07T10:42:59;96471.24;;;19.69;40.08
47082;BME280;33066;49.296;14.470;2023-08-07T10:45:22;96474.95;;;19.66;39.30
47082;BME280;33066;49.296;14.470;2023-08-07T10:48:05;96482.78;;;19.60;40.31
47082;BME280;33066;49.296;14.470;2023-08-07T10:50:11;96492.36;;;19.21;40.55
47082;BME280;33066;49.296;14.470;2023-08-07T10:52:38;96482.62;;;19.48;40.70
47082;BME280;33066;49.296;14.470;2023-08-07T10:55:02;96492.39;;;19.79;40.50
47082;BME280;33066;49.296;14.470;2023-08-07T10:57:32;96493.96;;;19.45;39.90
47082;BME280;33066;49.296;14.470;2023-08-07T11:00:02;96496.88;;;19.65;39.70
47082;BME280;33066;49.296;14.470;2023-08-07T11:02:23;96508.04;;;19.52;40.67
47082;BME280;33066;49.296;14.470;2023-08-07T11:04:43;96493.15;;;19.34;40.47
47082;BME280;33066;49.296;14.470;2023-08-07T11:07:08;96491.22;;;19.43;40.47
47082;BME280;33066;49.296;14.470;2023-08-07T11:09:33;96492.53;;;19.55;40.23
47082;BME280;33066;49.296;14.470;2023-08-07T11:11:57;96491.91;;;19.74;39.97
47082;BME280;33066;49.296;14.470;2023-08-07T11:14:22;96486.17;;;19.24;40.24
47082;BME280;33066;49.296;14.470;2023-08-07T11:16:48;96487.37;;;19.48;40.05
47082;BME280;33066;49.296;14.470;2023-08-07T11:19:14;96495.42;;;19.63;39.73
47082;BME280;33066;49.296;14.470;2023-08-07T11:21:38;96494.50;;;19.52;39.36
47082;BME280;33066;49.296;14.470;2023-08-07T11:24:03;96512.43;;;19.53;39.97
47082;BME280;33066;49.296;14.470;2023-08-07T11:26:30;96498.82;;;19.59;40.17
47082;BME280;33066;49.296;14.470;2023-08-07T11:28:54;96501.44;;;19.74;40.33
47082;BME280;33066;49.296;14.470;2023-08-07T11:31:19;96499.19;;;20.04;38.95
47082;BME280;33066;49.296;14.470;2023-08-07T11:33:44;96502.51;;;19.37;39.10
47082;BME280;33066;49.296;14.470;2023-08-07T11:36:14;96498.53;;;19.14;39.61
47082;BME280;33066;49.296;14.470;2023-08-07T11:38:38;96503.68;;;19.34;39.89
47082;BME280;33066;49.296;14.470;2023-08-07T11:41:00;96504.83;;;19.32;39.28
47082;BME280;33066;49.296;14.470;2023-08-07T11:43:24;96513.13;;;19.27;40.00
47082;BME280;33066;49.296;14.470;2023-08-07T11:45:50;96511.17;;;19.33;39.94
47082;BME280;33066;49.296;14.470;2023-08-07T11:48:15;96521.49;;;19.30;39.86
47082;BME280;33066;49.296;14.470;2023-08-07T11:50:39;96513.24;;;19.18;39.48
47082;BME280;33066;49.296;14.470;2023-08-07T11:53:04;96520.22;;;19.36;39.74
47082;BME280;33066;49.296;14.470;2023-08-07T11:55:29;96530.37;;;19.05;39.97
47082;BME280;33066;49.296;14.470;2023-08-07T11:57:55;96530.46;;;19.22;40.32
47082;BME280;33066;49.296;14.470;2023-08-07T12:00:20;96527.54;;;19.30;39.72
47082;BME280;33066;49.296;14.470;2023-08-07T12:02:45;96533.70;;;19.83;39.66
47082;BME280;33066;49.296;14.470;2023-08-07T12:05:11;96538.96;;;19.73;38.31
47082;BME280;33066;49.296;14.470;2023-08-07T12:07:35;96517.50;;;19.54;38.98
47082;BME280;33066;49.296;14.470;2023-08-07T12:10:03;96528.36;;;19.50;39.22
47082;BME280;33066;49.296;14.470;2023-08-07T12:12:25;96534.16;;;19.59;39.57
47082;BME280;33066;49.296;14.470;2023-08-07T12:14:53;96532.30;;;19.35;38.74
47082;BME280;33066;49.296;14.470;2023-08-07T12:17:16;96523.94;;;19.33;39.10
47082;BME280;33066;49.296;14.470;2023-08-07T12:19:41;96533.62;;;19.39;38.43
47082;BME280;33066;49.296;14.470;2023-08-07T12:22:07;96551.24;;;19.40;38.95
47082;BME280;33066;49.296;14.470;2023-08-07T12:24:30;96542.89;;;19.41;39.17
47082;BME280;33066;49.296;14.470;2023-08-07T12:26:56;96536.53;;;19.67;39.12
47082;BME280;33066;49.296;14.470;2023-08-07T12:29:21;96546.75;;;19.63;38.92
47082;BME280;33066;49.296;14.470;2023-08-07T12:31:46;96545.94;;;19.64;38.50
47082;BME280;33066;49.296;14.470;2023-08-07T12:34:11;96551.12;;;19.71;38.76
47082;BME280;33066;49.296;14.470;2023-08-07T12:36:36;96550.50;;;19.75;38.71
47082;BME280;33066;49.296;14.470;2023-08-07T12:39:01;96558.72;;;19.83;38.76
47082;BME280;33066;49.296;14.470;2023-08-07T12:41:27;96554.61;;;20.35;38.62